メインページ
METAR-TAF:

METAR-TAF

空港 :

千歳, 日本

新千歳空港

緯度: 42-48N, 経度: 141-40E, 海抜: 27m

現時点の気象観測

当レポートは24分前の23:30(UTC)に作成
の風 4kt
気温 -15°C
湿度 85%
気圧 1017 hPa
視程10km以上
高度1500ftの雲はほとんどない
千切れ雲あり

METAR: RJCC 182330Z 17004KT 9999 FEW015 BKN/// M15/M17 Q1017

時間: 08:54 (23:54 UTC)

予報

当レポートは49分前の23:05(UTC)に作成
予報は19日の 00時(UTC)から 20日の 06時(UTC)まで有効
南西の風 7kt
視程10km以上
高度1500ftの雲はほとんどない
高度3000ftの千切れ雲あり
19日の 02時(UTC)から 19日の 04時(UTC)まで徐々に
西/北西の風 12kt
19日の 07時(UTC)から 19日の 09時(UTC)まで徐々に
西/南西の風 7kt
20日の 03時(UTC)から 20日の 06時(UTC)まで徐々に
北/北西の風 9kt

TAF: RJCC 182305Z 1900/2006 22007KT 9999 FEW015 BKN030 BECMG 1902/1904 30012KT BECMG 1907/1909 24007KT BECMG 2003/2006 33009KT

4,000以上の空港の気象観測と天気予報(METAR報とTAF報)

利用可能な観測所は地図上に黄色い丸と赤い丸で示す。

丸の上にカーソルを重ねると観測所名を参照できる。

次にクリックすると気象観測と天気予報を参照できる。

マップの切り替え:黒色「×」印の緑ボタンをクリックして拡大、「-」印の緑ボタンをクリックして縮小、緑色の三角印をクリックして隣りの地図に切り替え


METAR-TAF: